sensor_id;sensor_type;location;lat;lon;timestamp;pressure;altitude;pressure_sealevel;temperature
32827;BMP280;51059;42.058;27.986;2024-03-08T00:02:36;78167.53;;;-131.54
32827;BMP280;51059;42.058;27.986;2024-03-08T00:05:04;78153.97;;;-131.54
32827;BMP280;51059;42.058;27.986;2024-03-08T00:07:30;78130.69;;;-131.54
32827;BMP280;51059;42.058;27.986;2024-03-08T00:09:57;78126.81;;;-131.54
32827;BMP280;51059;42.058;27.986;2024-03-08T00:12:22;78128.75;;;-131.54
32827;BMP280;51059;42.058;27.986;2024-03-08T00:14:49;78124.88;;;-131.54
32827;BMP280;51059;42.058;27.986;2024-03-08T00:17:16;78126.81;;;-131.54
32827;BMP280;51059;42.058;27.986;2024-03-08T00:19:42;78126.81;;;-131.54
32827;BMP280;51059;42.058;27.986;2024-03-08T00:22:08;78124.88;;;-131.54
32827;BMP280;51059;42.058;27.986;2024-03-08T00:24:33;78136.50;;;-131.54
32827;BMP280;51059;42.058;27.986;2024-03-08T00:27:01;78136.50;;;-131.54
32827;BMP280;51059;42.058;27.986;2024-03-08T00:29:27;78124.88;;;-131.54
32827;BMP280;51059;42.058;27.986;2024-03-08T00:31:53;78126.81;;;-131.54
32827;BMP280;51059;42.058;27.986;2024-03-08T00:34:19;78144.25;;;-131.54
32827;BMP280;51059;42.058;27.986;2024-03-08T00:36:45;78142.31;;;-131.54
32827;BMP280;51059;42.058;27.986;2024-03-08T00:39:11;78128.75;;;-131.54
32827;BMP280;51059;42.058;27.986;2024-03-08T00:41:37;78126.81;;;-131.54
32827;BMP280;51059;42.058;27.986;2024-03-08T00:44:04;78126.81;;;-131.54
32827;BMP280;51059;42.058;27.986;2024-03-08T00:46:30;78122.94;;;-131.54
32827;BMP280;51059;42.058;27.986;2024-03-08T00:48:57;78132.63;;;-131.54
32827;BMP280;51059;42.058;27.986;2024-03-08T00:51:22;78113.25;;;-131.54
32827;BMP280;51059;42.058;27.986;2024-03-08T00:53:48;78121.00;;;-131.54
32827;BMP280;51059;42.058;27.986;2024-03-08T00:56:14;78119.06;;;-131.54
32827;BMP280;51059;42.058;27.986;2024-03-08T00:58:40;78124.88;;;-131.54
32827;BMP280;51059;42.058;27.986;2024-03-08T01:01:07;78140.38;;;-131.54
32827;BMP280;51059;42.058;27.986;2024-03-08T01:03:33;78105.50;;;-131.54
32827;BMP280;51059;42.058;27.986;2024-03-08T01:06:00;78155.91;;;-131.54
32827;BMP280;51059;42.058;27.986;2024-03-08T01:08:29;78140.38;;;-131.54
32827;BMP280;51059;42.058;27.986;2024-03-08T01:10:55;78126.81;;;-131.54
32827;BMP280;51059;42.058;27.986;2024-03-08T01:13:21;78128.75;;;-131.54
32827;BMP280;51059;42.058;27.986;2024-03-08T01:15:47;78134.56;;;-131.54
32827;BMP280;51059;42.058;27.986;2024-03-08T01:18:13;78124.88;;;-131.54
32827;BMP280;51059;42.058;27.986;2024-03-08T01:20:39;78134.56;;;-131.54
32827;BMP280;51059;42.058;27.986;2024-03-08T01:23:06;78130.69;;;-131.54
32827;BMP280;51059;42.058;27.986;2024-03-08T01:25:34;78140.38;;;-131.54
32827;BMP280;51059;42.058;27.986;2024-03-08T01:28:00;78136.50;;;-131.54
32827;BMP280;51059;42.058;27.986;2024-03-08T01:30:26;78130.69;;;-131.54
32827;BMP280;51059;42.058;27.986;2024-03-08T01:32:52;78109.38;;;-131.54
32827;BMP280;51059;42.058;27.986;2024-03-08T01:35:19;78082.22;;;-131.54
32827;BMP280;51059;42.058;27.986;2024-03-08T01:37:45;78183.03;;;-131.54
32827;BMP280;51059;42.058;27.986;2024-03-08T01:40:11;78157.84;;;-131.54
32827;BMP280;51059;42.058;27.986;2024-03-08T01:42:37;78153.97;;;-131.54
32827;BMP280;51059;42.058;27.986;2024-03-08T01:45:07;78157.84;;;-131.54
32827;BMP280;51059;42.058;27.986;2024-03-08T01:47:35;78136.50;;;-131.54
32827;BMP280;51059;42.058;27.986;2024-03-08T01:50:01;78121.00;;;-131.54
32827;BMP280;51059;42.058;27.986;2024-03-08T01:52:29;78113.25;;;-131.54
32827;BMP280;51059;42.058;27.986;2024-03-08T01:54:59;78113.25;;;-131.54
32827;BMP280;51059;42.058;27.986;2024-03-08T01:57:27;78119.06;;;-131.54
32827;BMP280;51059;42.058;27.986;2024-03-08T01:59:54;78101.63;;;-131.54
32827;BMP280;51059;42.058;27.986;2024-03-08T02:02:21;78148.16;;;-131.54
32827;BMP280;51059;42.058;27.986;2024-03-08T02:04:48;78152.03;;;-131.54
32827;BMP280;51059;42.058;27.986;2024-03-08T02:07:14;78146.19;;;-131.54
32827;BMP280;51059;42.058;27.986;2024-03-08T02:09:40;78186.91;;;-131.54
32827;BMP280;51059;42.058;27.986;2024-03-08T02:12:06;78148.16;;;-131.54
32827;BMP280;51059;42.058;27.986;2024-03-08T02:14:33;78171.41;;;-131.54
32827;BMP280;51059;42.058;27.986;2024-03-08T02:17:03;78175.28;;;-131.54
32827;BMP280;51059;42.058;27.986;2024-03-08T02:19:28;78165.59;;;-131.54
32827;BMP280;51059;42.058;27.986;2024-03-08T02:21:56;78179.16;;;-131.54
32827;BMP280;51059;42.058;27.986;2024-03-08T02:24:22;78206.28;;;-131.54
32827;BMP280;51059;42.058;27.986;2024-03-08T02:26:51;78223.75;;;-131.54
32827;BMP280;51059;42.058;27.986;2024-03-08T02:29:17;78229.56;;;-131.54
32827;BMP280;51059;42.058;27.986;2024-03-08T02:31:45;78241.19;;;-131.54
32827;BMP280;51059;42.058;27.986;2024-03-08T02:34:11;78260.56;;;-131.54
32827;BMP280;51059;42.058;27.986;2024-03-08T02:36:37;78241.19;;;-131.54
32827;BMP280;51059;42.058;27.986;2024-03-08T02:39:03;78256.69;;;-131.54
32827;BMP280;51059;42.058;27.986;2024-03-08T02:41:31;78310.97;;;-131.54
32827;BMP280;51059;42.058;27.986;2024-03-08T02:43:57;78310.97;;;-131.54
32827;BMP280;51059;42.058;27.986;2024-03-08T02:46:23;78342.00;;;-131.54
32827;BMP280;51059;42.058;27.986;2024-03-08T02:48:49;78320.66;;;-131.54
32827;BMP280;51059;42.058;27.986;2024-03-08T02:51:16;78318.72;;;-131.54
32827;BMP280;51059;42.058;27.986;2024-03-08T02:53:42;78343.94;;;-131.54
32827;BMP280;51059;42.058;27.986;2024-03-08T02:56:08;78359.44;;;-131.54
32827;BMP280;51059;42.058;27.986;2024-03-08T02:58:38;78373.00;;;-131.54
32827;BMP280;51059;42.058;27.986;2024-03-08T03:01:04;78367.19;;;-131.54
32827;BMP280;51059;42.058;27.986;2024-03-08T03:03:31;78359.44;;;-131.54
32827;BMP280;51059;42.058;27.986;2024-03-08T03:05:59;78373.00;;;-131.54
32827;BMP280;51059;42.058;27.986;2024-03-08T03:08:24;78369.13;;;-131.54
32827;BMP280;51059;42.058;27.986;2024-03-08T03:10:50;78384.66;;;-131.54
32827;BMP280;51059;42.058;27.986;2024-03-08T03:13:16;78427.28;;;-131.54
32827;BMP280;51059;42.058;27.986;2024-03-08T03:15:46;78392.41;;;-131.54
32827;BMP280;51059;42.058;27.986;2024-03-08T03:18:12;78384.66;;;-131.54
32827;BMP280;51059;42.058;27.986;2024-03-08T03:20:38;78386.59;;;-131.54
32827;BMP280;51059;42.058;27.986;2024-03-08T03:23:09;78388.53;;;-131.54
32827;BMP280;51059;42.058;27.986;2024-03-08T03:25:35;78378.84;;;-131.54
32827;BMP280;51059;42.058;27.986;2024-03-08T03:28:02;78378.84;;;-131.54
32827;BMP280;51059;42.058;27.986;2024-03-08T03:30:28;78398.22;;;-131.54
32827;BMP280;51059;42.058;27.986;2024-03-08T03:32:59;78392.41;;;-131.54
32827;BMP280;51059;42.058;27.986;2024-03-08T03:35:32;78409.84;;;-131.54
32827;BMP280;51059;42.058;27.986;2024-03-08T03:38:00;78415.66;;;-131.54
32827;BMP280;51059;42.058;27.986;2024-03-08T03:40:36;78415.66;;;-131.54
32827;BMP280;51059;42.058;27.986;2024-03-08T03:43:03;78417.59;;;-131.54
32827;BMP280;51059;42.058;27.986;2024-03-08T03:45:30;78454.44;;;-131.54
32827;BMP280;51059;42.058;27.986;2024-03-08T03:48:05;78427.28;;;-131.54
32827;BMP280;51059;42.058;27.986;2024-03-08T03:50:39;78415.66;;;-131.54
32827;BMP280;51059;42.058;27.986;2024-03-08T03:53:05;78415.66;;;-131.54
32827;BMP280;51059;42.058;27.986;2024-03-08T03:55:34;78411.78;;;-131.54
32827;BMP280;51059;42.058;27.986;2024-03-08T03:58:02;78431.19;;;-131.54
32827;BMP280;51059;42.058;27.986;2024-03-08T04:00:28;78442.81;;;-131.54
32827;BMP280;51059;42.058;27.986;2024-03-08T04:02:54;78438.94;;;-131.54
32827;BMP280;51059;42.058;27.986;2024-03-08T04:05:20;78435.06;;;-131.54
32827;BMP280;51059;42.058;27.986;2024-03-08T04:07:46;78444.75;;;-131.54
32827;BMP280;51059;42.058;27.986;2024-03-08T04:10:12;78438.94;;;-131.54
32827;BMP280;51059;42.058;27.986;2024-03-08T04:12:39;78454.44;;;-131.54
32827;BMP280;51059;42.058;27.986;2024-03-08T04:15:05;78454.44;;;-131.54
32827;BMP280;51059;42.058;27.986;2024-03-08T04:17:36;78489.34;;;-131.54
32827;BMP280;51059;42.058;27.986;2024-03-08T04:20:04;78454.44;;;-131.54
32827;BMP280;51059;42.058;27.986;2024-03-08T04:22:37;78456.38;;;-131.54
32827;BMP280;51059;42.058;27.986;2024-03-08T04:25:05;78456.38;;;-131.54
32827;BMP280;51059;42.058;27.986;2024-03-08T04:27:32;78450.56;;;-131.54
32827;BMP280;51059;42.058;27.986;2024-03-08T04:29:58;78450.56;;;-131.54
32827;BMP280;51059;42.058;27.986;2024-03-08T04:32:25;78450.56;;;-131.54
32827;BMP280;51059;42.058;27.986;2024-03-08T04:34:50;78450.56;;;-131.54
32827;BMP280;51059;42.058;27.986;2024-03-08T04:37:17;78450.56;;;-131.54
32827;BMP280;51059;42.058;27.986;2024-03-08T04:39:50;78448.63;;;-131.54
32827;BMP280;51059;42.058;27.986;2024-03-08T04:42:16;78452.50;;;-131.54
32827;BMP280;51059;42.058;27.986;2024-03-08T04:44:43;78450.56;;;-131.54
32827;BMP280;51059;42.058;27.986;2024-03-08T04:47:09;78450.56;;;-131.54
32827;BMP280;51059;42.058;27.986;2024-03-08T04:49:36;78518.41;;;-131.54
32827;BMP280;51059;42.058;27.986;2024-03-08T04:52:06;78504.84;;;-131.54
32827;BMP280;51059;42.058;27.986;2024-03-08T04:54:32;78504.84;;;-131.54
32827;BMP280;51059;42.058;27.986;2024-03-08T04:56:58;78512.59;;;-131.54
32827;BMP280;51059;42.058;27.986;2024-03-08T04:59:27;78506.78;;;-131.54
32827;BMP280;51059;42.058;27.986;2024-03-08T05:01:53;78500.97;;;-131.54
32827;BMP280;51059;42.058;27.986;2024-03-08T05:04:20;78512.59;;;-131.54
32827;BMP280;51059;42.058;27.986;2024-03-08T05:06:46;78500.97;;;-131.54
32827;BMP280;51059;42.058;27.986;2024-03-08T05:09:12;78500.97;;;-131.54
32827;BMP280;51059;42.058;27.986;2024-03-08T05:11:43;78500.97;;;-131.54
32827;BMP280;51059;42.058;27.986;2024-03-08T05:14:13;78506.78;;;-131.54
32827;BMP280;51059;42.058;27.986;2024-03-08T05:16:44;78512.59;;;-131.54
32827;BMP280;51059;42.058;27.986;2024-03-08T05:19:18;78495.16;;;-131.54
32827;BMP280;51059;42.058;27.986;2024-03-08T05:21:47;78559.13;;;-131.54
32827;BMP280;51059;42.058;27.986;2024-03-08T05:24:13;78508.72;;;-131.54
32827;BMP280;51059;42.058;27.986;2024-03-08T05:26:41;78500.97;;;-131.54
32827;BMP280;51059;42.058;27.986;2024-03-08T05:29:07;78493.22;;;-131.54
32827;BMP280;51059;42.058;27.986;2024-03-08T05:31:47;78499.03;;;-131.54
32827;BMP280;51059;42.058;27.986;2024-03-08T05:34:14;78493.22;;;-131.54
32827;BMP280;51059;42.058;27.986;2024-03-08T05:36:41;78497.09;;;-131.54
32827;BMP280;51059;42.058;27.986;2024-03-08T05:39:11;78483.53;;;-131.54
32827;BMP280;51059;42.058;27.986;2024-03-08T05:41:38;78481.56;;;-131.54
32827;BMP280;51059;42.058;27.986;2024-03-08T05:44:05;78493.22;;;-131.54
32827;BMP280;51059;42.058;27.986;2024-03-08T05:46:31;78477.69;;;-131.54
32827;BMP280;51059;42.058;27.986;2024-03-08T05:48:57;78475.75;;;-131.54
32827;BMP280;51059;42.058;27.986;2024-03-08T05:51:25;78479.63;;;-131.54
32827;BMP280;51059;42.058;27.986;2024-03-08T05:53:53;78539.75;;;-131.54
32827;BMP280;51059;42.058;27.986;2024-03-08T05:56:21;78477.69;;;-131.54
32827;BMP280;51059;42.058;27.986;2024-03-08T05:58:49;78454.44;;;-131.54
32827;BMP280;51059;42.058;27.986;2024-03-08T06:01:17;78446.69;;;-131.54
32827;BMP280;51059;42.058;27.986;2024-03-08T06:03:43;78442.81;;;-131.54
32827;BMP280;51059;42.058;27.986;2024-03-08T06:06:15;78454.44;;;-131.54
32827;BMP280;51059;42.058;27.986;2024-03-08T06:08:41;78442.81;;;-131.54
32827;BMP280;51059;42.058;27.986;2024-03-08T06:11:09;78437.00;;;-131.54
32827;BMP280;51059;42.058;27.986;2024-03-08T06:13:35;78437.00;;;-131.54
32827;BMP280;51059;42.058;27.986;2024-03-08T06:16:01;78438.94;;;-131.54
32827;BMP280;51059;42.058;27.986;2024-03-08T06:18:31;78437.00;;;-131.54
32827;BMP280;51059;42.058;27.986;2024-03-08T06:20:57;78437.00;;;-131.54
32827;BMP280;51059;42.058;27.986;2024-03-08T06:23:22;78438.94;;;-131.54
32827;BMP280;51059;42.058;27.986;2024-03-08T06:25:49;78479.63;;;-131.54
32827;BMP280;51059;42.058;27.986;2024-03-08T06:28:15;78450.56;;;-131.54
32827;BMP280;51059;42.058;27.986;2024-03-08T06:30:42;78429.22;;;-131.54
32827;BMP280;51059;42.058;27.986;2024-03-08T06:33:09;78431.19;;;-131.54
32827;BMP280;51059;42.058;27.986;2024-03-08T06:35:37;78384.66;;;-131.54
32827;BMP280;51059;42.058;27.986;2024-03-08T06:38:05;78380.78;;;-131.54
32827;BMP280;51059;42.058;27.986;2024-03-08T06:40:31;78359.44;;;-131.54
32827;BMP280;51059;42.058;27.986;2024-03-08T06:42:57;78367.19;;;-131.54
32827;BMP280;51059;42.058;27.986;2024-03-08T06:45:23;78386.59;;;-131.54
32827;BMP280;51059;42.058;27.986;2024-03-08T06:47:49;78359.44;;;-131.54
32827;BMP280;51059;42.058;27.986;2024-03-08T06:50:16;78357.50;;;-131.54
32827;BMP280;51059;42.058;27.986;2024-03-08T06:52:41;78349.75;;;-131.54
32827;BMP280;51059;42.058;27.986;2024-03-08T06:55:12;78347.81;;;-131.54
32827;BMP280;51059;42.058;27.986;2024-03-08T06:57:40;78353.63;;;-131.54
32827;BMP280;51059;42.058;27.986;2024-03-08T07:00:10;78338.13;;;-131.54
32827;BMP280;51059;42.058;27.986;2024-03-08T07:02:37;78357.50;;;-131.54
32827;BMP280;51059;42.058;27.986;2024-03-08T07:05:05;78349.75;;;-131.54
32827;BMP280;51059;42.058;27.986;2024-03-08T07:07:31;78361.38;;;-131.54
32827;BMP280;51059;42.058;27.986;2024-03-08T07:10:00;78353.63;;;-131.54
32827;BMP280;51059;42.058;27.986;2024-03-08T07:12:28;78365.25;;;-131.54
32827;BMP280;51059;42.058;27.986;2024-03-08T07:14:54;78355.56;;;-131.54
32827;BMP280;51059;42.058;27.986;2024-03-08T07:17:20;78355.56;;;-131.54
32827;BMP280;51059;42.058;27.986;2024-03-08T07:19:47;78345.88;;;-131.54
32827;BMP280;51059;42.058;27.986;2024-03-08T07:22:13;78328.44;;;-131.54
32827;BMP280;51059;42.058;27.986;2024-03-08T07:24:39;78347.81;;;-131.54
32827;BMP280;51059;42.058;27.986;2024-03-08T07:27:37;78338.13;;;-131.54
32827;BMP280;51059;42.058;27.986;2024-03-08T07:30:04;78367.19;;;-131.54
32827;BMP280;51059;42.058;27.986;2024-03-08T07:32:30;78332.31;;;-131.54
32827;BMP280;51059;42.058;27.986;2024-03-08T07:34:57;78326.50;;;-131.54
32827;BMP280;51059;42.058;27.986;2024-03-08T07:37:23;78318.72;;;-131.54
32827;BMP280;51059;42.058;27.986;2024-03-08T07:39:49;78314.84;;;-131.54
32827;BMP280;51059;42.058;27.986;2024-03-08T07:42:15;78316.78;;;-131.54
32827;BMP280;51059;42.058;27.986;2024-03-08T07:44:42;78303.22;;;-131.54
32827;BMP280;51059;42.058;27.986;2024-03-08T07:47:08;78299.34;;;-131.54
32827;BMP280;51059;42.058;27.986;2024-03-08T07:49:35;78303.22;;;-131.54
32827;BMP280;51059;42.058;27.986;2024-03-08T07:52:04;78299.34;;;-131.54
32827;BMP280;51059;42.058;27.986;2024-03-08T07:54:30;78291.59;;;-131.54
32827;BMP280;51059;42.058;27.986;2024-03-08T07:56:56;78299.34;;;-131.54
32827;BMP280;51059;42.058;27.986;2024-03-08T07:59:22;78297.41;;;-131.54
32827;BMP280;51059;42.058;27.986;2024-03-08T08:01:49;78338.13;;;-131.54
32827;BMP280;51059;42.058;27.986;2024-03-08T08:04:15;78316.78;;;-131.54
32827;BMP280;51059;42.058;27.986;2024-03-08T08:06:43;78314.84;;;-131.54
32827;BMP280;51059;42.058;27.986;2024-03-08T08:09:09;78318.72;;;-131.54
32827;BMP280;51059;42.058;27.986;2024-03-08T08:11:40;78318.72;;;-131.54
32827;BMP280;51059;42.058;27.986;2024-03-08T08:14:09;78312.91;;;-131.54
32827;BMP280;51059;42.058;27.986;2024-03-08T08:16:36;78314.84;;;-131.54
32827;BMP280;51059;42.058;27.986;2024-03-08T08:19:03;78310.97;;;-131.54
32827;BMP280;51059;42.058;27.986;2024-03-08T08:21:34;78312.91;;;-131.54
32827;BMP280;51059;42.058;27.986;2024-03-08T08:24:05;78310.97;;;-131.54
32827;BMP280;51059;42.058;27.986;2024-03-08T08:26:32;78316.78;;;-131.54
32827;BMP280;51059;42.058;27.986;2024-03-08T08:28:59;78326.50;;;-131.54
32827;BMP280;51059;42.058;27.986;2024-03-08T08:31:26;78314.84;;;-131.54
32827;BMP280;51059;42.058;27.986;2024-03-08T08:33:51;78357.50;;;-131.54
32827;BMP280;51059;42.058;27.986;2024-03-08T08:36:24;78351.69;;;-131.54
32827;BMP280;51059;42.058;27.986;2024-03-08T08:38:50;78340.06;;;-131.54
32827;BMP280;51059;42.058;27.986;2024-03-08T08:41:16;78342.00;;;-131.54
32827;BMP280;51059;42.058;27.986;2024-03-08T08:43:43;78343.94;;;-131.54
32827;BMP280;51059;42.058;27.986;2024-03-08T08:46:12;78345.88;;;-131.54
32827;BMP280;51059;42.058;27.986;2024-03-08T08:48:42;78353.63;;;-131.54
32827;BMP280;51059;42.058;27.986;2024-03-08T08:51:12;78345.88;;;-131.54
32827;BMP280;51059;42.058;27.986;2024-03-08T08:53:42;78338.13;;;-131.54
32827;BMP280;51059;42.058;27.986;2024-03-08T08:56:13;78347.81;;;-131.54
32827;BMP280;51059;42.058;27.986;2024-03-08T08:58:40;78336.19;;;-131.54
32827;BMP280;51059;42.058;27.986;2024-03-08T09:01:09;78322.59;;;-131.54
32827;BMP280;51059;42.058;27.986;2024-03-08T09:03:37;78309.03;;;-131.54
32827;BMP280;51059;42.058;27.986;2024-03-08T09:06:06;78343.94;;;-131.54
32827;BMP280;51059;42.058;27.986;2024-03-08T09:08:39;78318.72;;;-131.54
32827;BMP280;51059;42.058;27.986;2024-03-08T09:11:05;78297.41;;;-131.54
32827;BMP280;51059;42.058;27.986;2024-03-08T09:13:31;78285.78;;;-131.54
32827;BMP280;51059;42.058;27.986;2024-03-08T09:15:57;78285.78;;;-131.54
32827;BMP280;51059;42.058;27.986;2024-03-08T09:18:23;78272.22;;;-131.54
32827;BMP280;51059;42.058;27.986;2024-03-08T09:20:52;78266.38;;;-131.54
32827;BMP280;51059;42.058;27.986;2024-03-08T09:23:22;78274.16;;;-131.54
32827;BMP280;51059;42.058;27.986;2024-03-08T09:25:48;78256.69;;;-131.54
32827;BMP280;51059;42.058;27.986;2024-03-08T09:28:14;78274.16;;;-131.54
32827;BMP280;51059;42.058;27.986;2024-03-08T09:30:41;78281.91;;;-131.54
32827;BMP280;51059;42.058;27.986;2024-03-08T09:33:07;78274.16;;;-131.54
32827;BMP280;51059;42.058;27.986;2024-03-08T09:35:34;78270.28;;;-131.54
32827;BMP280;51059;42.058;27.986;2024-03-08T09:38:00;78305.16;;;-131.54
32827;BMP280;51059;42.058;27.986;2024-03-08T09:40:26;78295.47;;;-131.54
32827;BMP280;51059;42.058;27.986;2024-03-08T09:42:54;78291.59;;;-131.54
32827;BMP280;51059;42.058;27.986;2024-03-08T09:45:22;78291.59;;;-131.54
32827;BMP280;51059;42.058;27.986;2024-03-08T09:47:49;78297.41;;;-131.54
32827;BMP280;51059;42.058;27.986;2024-03-08T09:50:15;78295.47;;;-131.54
32827;BMP280;51059;42.058;27.986;2024-03-08T09:52:47;78303.22;;;-131.54
32827;BMP280;51059;42.058;27.986;2024-03-08T09:55:16;78297.41;;;-131.54
32827;BMP280;51059;42.058;27.986;2024-03-08T09:57:43;78303.22;;;-131.54
32827;BMP280;51059;42.058;27.986;2024-03-08T10:00:28;78281.91;;;-131.54
32827;BMP280;51059;42.058;27.986;2024-03-08T10:02:54;78287.72;;;-131.54
32827;BMP280;51059;42.058;27.986;2024-03-08T10:05:19;78287.72;;;-131.54
32827;BMP280;51059;42.058;27.986;2024-03-08T10:07:47;78295.47;;;-131.54
32827;BMP280;51059;42.058;27.986;2024-03-08T10:10:13;78314.84;;;-131.54
32827;BMP280;51059;42.058;27.986;2024-03-08T10:12:39;78287.72;;;-131.54
32827;BMP280;51059;42.058;27.986;2024-03-08T10:15:08;78264.44;;;-131.54
32827;BMP280;51059;42.058;27.986;2024-03-08T10:17:37;78268.31;;;-131.54
32827;BMP280;51059;42.058;27.986;2024-03-08T10:20:03;78274.16;;;-131.54
32827;BMP280;51059;42.058;27.986;2024-03-08T10:22:41;78276.09;;;-131.54
32827;BMP280;51059;42.058;27.986;2024-03-08T10:25:12;78268.31;;;-131.54
32827;BMP280;51059;42.058;27.986;2024-03-08T10:27:40;78268.31;;;-131.54
32827;BMP280;51059;42.058;27.986;2024-03-08T10:30:15;78260.56;;;-131.54
32827;BMP280;51059;42.058;27.986;2024-03-08T10:32:45;78276.09;;;-131.54
32827;BMP280;51059;42.058;27.986;2024-03-08T10:35:11;78270.28;;;-131.54
32827;BMP280;51059;42.058;27.986;2024-03-08T10:37:56;78274.16;;;-131.54
32827;BMP280;51059;42.058;27.986;2024-03-08T10:40:28;78278.03;;;-131.54
32827;BMP280;51059;42.058;27.986;2024-03-08T10:42:55;78318.72;;;-131.54
32827;BMP280;51059;42.058;27.986;2024-03-08T10:45:42;78287.72;;;-131.54
32827;BMP280;51059;42.058;27.986;2024-03-08T10:48:29;78303.22;;;-131.54
32827;BMP280;51059;42.058;27.986;2024-03-08T10:51:03;78309.03;;;-131.54
32827;BMP280;51059;42.058;27.986;2024-03-08T10:53:30;78305.16;;;-131.54
32827;BMP280;51059;42.058;27.986;2024-03-08T10:55:58;78303.22;;;-131.54
32827;BMP280;51059;42.058;27.986;2024-03-08T10:58:27;78299.34;;;-131.54
32827;BMP280;51059;42.058;27.986;2024-03-08T11:00:57;78309.03;;;-131.54
32827;BMP280;51059;42.058;27.986;2024-03-08T11:06:30;78342.00;;;-131.54
32827;BMP280;51059;42.058;27.986;2024-03-08T11:08:57;78314.84;;;-131.54
32827;BMP280;51059;42.058;27.986;2024-03-08T11:11:33;78318.72;;;-131.54
32827;BMP280;51059;42.058;27.986;2024-03-08T11:14:02;78347.81;;;-131.54
32827;BMP280;51059;42.058;27.986;2024-03-08T11:21:37;78330.38;;;-131.54
32827;BMP280;51059;42.058;27.986;2024-03-08T11:24:14;78326.50;;;-131.54
32827;BMP280;51059;42.058;27.986;2024-03-08T11:26:42;78310.97;;;-131.54
32827;BMP280;51059;42.058;27.986;2024-03-08T11:32:16;78303.22;;;-131.54
32827;BMP280;51059;42.058;27.986;2024-03-08T11:34:49;78291.59;;;-131.54
32827;BMP280;51059;42.058;27.986;2024-03-08T11:37:19;78279.97;;;-131.54
32827;BMP280;51059;42.058;27.986;2024-03-08T11:39:53;78276.09;;;-131.54
32827;BMP280;51059;42.058;27.986;2024-03-08T11:42:30;78262.50;;;-131.54
32827;BMP280;51059;42.058;27.986;2024-03-08T11:44:57;78281.91;;;-131.54
32827;BMP280;51059;42.058;27.986;2024-03-08T11:47:24;78316.78;;;-131.54
32827;BMP280;51059;42.058;27.986;2024-03-08T11:49:52;78285.78;;;-131.54
32827;BMP280;51059;42.058;27.986;2024-03-08T11:52:19;78295.47;;;-131.54
32827;BMP280;51059;42.058;27.986;2024-03-08T11:54:53;78283.84;;;-131.54
32827;BMP280;51059;42.058;27.986;2024-03-08T11:57:22;78289.66;;;-131.54
32827;BMP280;51059;42.058;27.986;2024-03-08T11:59:52;78274.16;;;-131.54
32827;BMP280;51059;42.058;27.986;2024-03-08T12:02:25;78276.09;;;-131.54
32827;BMP280;51059;42.058;27.986;2024-03-08T12:04:58;78281.91;;;-131.54
32827;BMP280;51059;42.058;27.986;2024-03-08T12:07:25;78268.31;;;-131.54
32827;BMP280;51059;42.058;27.986;2024-03-08T12:10:22;78281.91;;;-131.54
32827;BMP280;51059;42.058;27.986;2024-03-08T12:12:50;78276.09;;;-131.54
32827;BMP280;51059;42.058;27.986;2024-03-08T12:15:18;78276.09;;;-131.54
32827;BMP280;51059;42.058;27.986;2024-03-08T12:17:48;78301.28;;;-131.54
32827;BMP280;51059;42.058;27.986;2024-03-08T12:22:44;78322.59;;;-131.54
32827;BMP280;51059;42.058;27.986;2024-03-08T12:25:13;78299.34;;;-131.54
32827;BMP280;51059;42.058;27.986;2024-03-08T12:27:40;78301.28;;;-131.54
32827;BMP280;51059;42.058;27.986;2024-03-08T12:30:21;78299.34;;;-131.54
32827;BMP280;51059;42.058;27.986;2024-03-08T12:32:50;78303.22;;;-131.54
32827;BMP280;51059;42.058;27.986;2024-03-08T12:35:20;78307.09;;;-131.54
32827;BMP280;51059;42.058;27.986;2024-03-08T12:37:57;78326.50;;;-131.54
32827;BMP280;51059;42.058;27.986;2024-03-08T12:40:27;78318.72;;;-131.54
32827;BMP280;51059;42.058;27.986;2024-03-08T12:42:55;78318.72;;;-131.54
32827;BMP280;51059;42.058;27.986;2024-03-08T12:45:22;78312.91;;;-131.54
32827;BMP280;51059;42.058;27.986;2024-03-08T12:47:52;78320.66;;;-131.54
32827;BMP280;51059;42.058;27.986;2024-03-08T12:50:22;78336.19;;;-131.54
32827;BMP280;51059;42.058;27.986;2024-03-08T12:52:48;78309.03;;;-131.54
32827;BMP280;51059;42.058;27.986;2024-03-08T12:55:15;78330.38;;;-131.54
32827;BMP280;51059;42.058;27.986;2024-03-08T12:57:42;78326.50;;;-131.54
32827;BMP280;51059;42.058;27.986;2024-03-08T13:00:09;78330.38;;;-131.54
32827;BMP280;51059;42.058;27.986;2024-03-08T13:02:49;78320.66;;;-131.54
32827;BMP280;51059;42.058;27.986;2024-03-08T13:05:16;78330.38;;;-131.54
32827;BMP280;51059;42.058;27.986;2024-03-08T13:07:42;78309.03;;;-131.54
32827;BMP280;51059;42.058;27.986;2024-03-08T13:10:12;78310.97;;;-131.54
32827;BMP280;51059;42.058;27.986;2024-03-08T13:12:43;78303.22;;;-131.54
32827;BMP280;51059;42.058;27.986;2024-03-08T13:15:10;78314.84;;;-131.54
32827;BMP280;51059;42.058;27.986;2024-03-08T13:17:41;78318.72;;;-131.54
32827;BMP280;51059;42.058;27.986;2024-03-08T13:20:08;78334.25;;;-131.54
32827;BMP280;51059;42.058;27.986;2024-03-08T13:22:35;78349.75;;;-131.54
32827;BMP280;51059;42.058;27.986;2024-03-08T13:25:02;78342.00;;;-131.54
32827;BMP280;51059;42.058;27.986;2024-03-08T13:27:28;78351.69;;;-131.54
32827;BMP280;51059;42.058;27.986;2024-03-08T13:29:54;78336.19;;;-131.54
32827;BMP280;51059;42.058;27.986;2024-03-08T13:32:20;78359.44;;;-131.54
32827;BMP280;51059;42.058;27.986;2024-03-08T13:34:48;78343.94;;;-131.54
32827;BMP280;51059;42.058;27.986;2024-03-08T13:37:17;78359.44;;;-131.54
32827;BMP280;51059;42.058;27.986;2024-03-08T13:39:43;78326.50;;;-131.54
32827;BMP280;51059;42.058;27.986;2024-03-08T13:42:15;78353.63;;;-131.54
32827;BMP280;51059;42.058;27.986;2024-03-08T13:44:45;78342.00;;;-131.54
32827;BMP280;51059;42.058;27.986;2024-03-08T13:47:13;78322.59;;;-131.54
32827;BMP280;51059;42.058;27.986;2024-03-08T13:49:40;78318.72;;;-131.54
32827;BMP280;51059;42.058;27.986;2024-03-08T13:52:06;78330.38;;;-131.54